Sea Jet — WDD2601 — position and weather

sailwx.info

Track history (hours):
 
Tides and Currents Weather Stations Pressure Air Temp Water Temp Dewpoint Dewpoint Depression Visibility Wind Speed Wind Dir Waves Ship Positions

Sea Jet

Owner: Cross Sound Ferry Services, Inc., New London, CT. More information available from US FCC via Universal Licensing System and Coast Guard Vessel Documentation Center.

Last reported at 2015-May-28 17:33 UTC. Time now 2015-May-28 17:58 UTC.
Position N 41°21' W 072°06'.

Length 33 m.

Type: High speed craft. MMSI: 367117430.

Date/timePositionNaut miles runAvg speedWind from/ knotsBaromVisibWave heightAir tempDewpointWater temp
2015-May-28 17:33N 41°21' W 072°06'0 0.0
2015-May-28 16:33N 41°21' W 072°06'0 0.0
2015-May-28 15:33N 41°21' W 072°06'2 2.2
2015-May-28 14:34N 41°19' W 072°05'7 7.1
2015-May-28 13:34N 41°14' W 072°11'7 6.9
2015-May-28 12:33N 41°19' W 072°05'8 8.0
2015-May-28 11:34N 41°13' W 072°12'10 9.7
2015-May-28 10:34N 41°21' W 072°06'1 0.1
2015-May-28 00:34N 41°20' W 072°05'1010.1
2015-May-27 23:34N 41°12' W 072°12'10 9.9
2015-May-27 22:34N 41°20' W 072°05'8 7.6
2015-May-27 21:34N 41°14' W 072°11'9 8.5
2015-May-27 20:33N 41°21' W 072°06'0 0.0
2015-May-27 19:33N 41°21' W 072°06'0 0.0
2015-May-27 18:33N 41°21' W 072°06'4 4.3
2015-May-27 17:34N 41°17' W 072°06'1010.3
2015-May-27 16:33N 41°09' W 072°14'8 7.6
2015-May-27 15:34N 41°15' W 072°08'5 5.3
2015-May-27 14:33N 41°20' W 072°05'9 8.9
2015-May-27 13:34N 41°13' W 072°11'9 9.1
2015-May-27 12:33N 41°20' W 072°05'9 8.6
2015-May-27 11:34N 41°13' W 072°11'9 9.3
2015-May-27 10:33N 41°21' W 072°06'1 0.1
2015-May-27 00:33N 41°20' W 072°05'10 9.7
2015-May-26 23:34N 41°12' W 072°12'9 9.0
2015-May-26 22:33N 41°19' W 072°05'8 7.8
2015-May-26 21:34N 41°13' W 072°11'9 9.3
2015-May-26 20:34N 41°21' W 072°06'0 0.0
2015-May-26 19:33N 41°21' W 072°06'0 0.0
2015-May-26 18:34N 41°21' W 072°06'0 0.0
2015-May-26 17:34N 41°21' W 072°06'0 0.0
2015-May-26 16:34N 41°21' W 072°06'0 0.0
2015-May-26 15:34N 41°21' W 072°06'2 1.8
2015-May-26 14:34N 41°20' W 072°05'8 8.1
2015-May-26 13:33N 41°13' W 072°11'8 8.5
2015-May-26 12:34N 41°20' W 072°05'8 7.9
2015-May-26 11:34N 41°14' W 072°11'9 8.8
2015-May-26 10:34N 41°21' W 072°06'0 0.0
2015-May-26 01:31N 41°21' W 072°06'1920.2
2015-May-26 00:34N 41°17' W 071°41'3 3.0
2015-May-25 23:34N 41°16' W 071°37'2222.3
2015-May-25 22:33N 41°21' W 072°06'1413.7
2015-May-25 21:34N 41°18' W 071°48'1313.1
2015-May-25 20:33N 41°11' W 071°33'2424.2
2015-May-25 19:34N 41°18' W 072°04'2 2.4
2015-May-25 18:34N 41°18' W 072°01'2221.8
2015-May-25 17:33N 41°10' W 071°33'1312.9
2015-May-25 16:34N 41°17' W 071°48'1413.8
2015-May-25 15:33N 41°21' W 072°06'1717.5
2015-May-25 14:34N 41°17' W 071°43'7 7.3
2015-May-25 13:34N 41°15' W 071°34'2524.6
2015-May-25 12:34N 41°21' W 072°05'0 0.2
2015-May-25 11:33N 41°21' W 072°06'0 0.0
2015-May-25 01:33N 41°21' W 072°06'2019.9
2015-May-25 00:33N 41°16' W 071°40'1 1.1
2015-May-24 23:34N 41°16' W 071°39'2120.9
2015-May-24 22:33N 41°21' W 072°06'1515.2
2015-May-24 21:34N 41°17' W 071°46'1211.8
2015-May-24 20:33N 41°10' W 071°33'0 0.0
2015-May-24 19:33N 41°10' W 071°33'0 0.0
2015-May-24 18:33N 41°10' W 071°33'0 0.0
2015-May-24 17:33N 41°10' W 071°33'1616.3
2015-May-24 16:34N 41°18' W 071°53'1010.3
2015-May-24 15:33N 41°21' W 072°06'2120.8
2015-May-24 14:34N 41°16' W 071°39'2 1.9
2015-May-24 13:33N 41°16' W 071°36'2322.6
2015-May-24 12:34N 41°21' W 072°05'0 0.2
2015-May-24 11:33N 41°21' W 072°06'0 0.0
2015-May-24 01:33N 41°21' W 072°06'2020.4
2015-May-24 00:34N 41°16' W 071°39'5 4.6
2015-May-23 23:34N 41°15' W 071°34'2524.9
2015-May-23 22:33N 41°21' W 072°06'1313.5
2015-May-23 21:34N 41°18' W 071°48'1313.3
2015-May-23 20:33N 41°10' W 071°33'0 0.0
2015-May-23 19:33N 41°10' W 071°33'0 0.0
2015-May-23 18:33N 41°10' W 071°33'0 0.0
2015-May-23 17:33N 41°10' W 071°33'1514.7
2015-May-23 16:34N 41°18' W 071°50'1212.1
2015-May-23 15:34N 41°21' W 072°06'2019.9
2015-May-23 14:34N 41°16' W 071°40'3 2.6
2015-May-23 13:34N 41°16' W 071°36'2222.3
2015-May-23 12:33N 41°21' W 072°05'0 0.3
2015-May-23 11:33N 41°21' W 072°06'0 0.0
2015-May-23 01:31N 41°21' W 072°06'1920.3
2015-May-23 00:34N 41°16' W 071°41'3 2.9
2015-May-22 23:34N 41°16' W 071°37'2222.3
2015-May-22 22:34N 41°21' W 072°06'1414.2
2015-May-22 21:34N 41°17' W 071°47'1312.7
2015-May-22 20:33N 41°10' W 071°33'2120.6
2015-May-22 19:34N 41°18' W 071°59'4 4.1
2015-May-22 18:34N 41°18' W 072°04'2424.5
2015-May-22 17:33N 41°11' W 071°33'0 0.2
2015-May-22 16:33N 41°10' W 071°33'0 0.0
2015-May-22 15:33N 41°10' W 071°33'1817.7
2015-May-22 14:34N 41°18' W 071°55'9 8.8
2015-May-22 13:33N 41°21' W 072°06'0 0.1
2015-May-22 12:33N 41°21' W 072°06'1 0.1
2015-May-21 22:33N 41°20' W 072°05'10 9.5
2015-May-21 21:34N 41°12' W 072°12'1010.3
2015-May-21 20:33N 41°21' W 072°06'0 0.0
2015-May-21 19:34N 41°21' W 072°06'0 0.0
2015-May-21 18:34N 41°21' W 072°06'0 0.0
2015-May-21 17:33N 41°21' W 072°06'0 0.0
2015-May-21 16:34N 41°21' W 072°06'0 0.0
2015-May-21 15:33N 41°21' W 072°06'0 0.0
2015-May-21 14:33N 41°21' W 072°06'2 1.7
2015-May-21 13:34N 41°20' W 072°05'8 8.4
2015-May-21 12:34N 41°13' W 072°11'10 9.5
2015-May-21 11:33N 41°21' W 072°06'1 0.1
2015-May-20 22:34N 41°20' W 072°05'9 8.9
2015-May-20 21:34N 41°13' W 072°12'10 9.7
2015-May-20 20:33N 41°21' W 072°06'0 0.0
2015-May-20 19:33N 41°21' W 072°06'0 0.0
2015-May-20 18:34N 41°21' W 072°06'0 0.0
2015-May-20 17:33N 41°21' W 072°06'0 0.0
2015-May-20 16:33N 41°21' W 072°06'0 0.0
2015-May-20 15:33N 41°21' W 072°06'0 0.0
2015-May-20 14:33N 41°21' W 072°06'2 2.2
2015-May-20 13:34N 41°19' W 072°05'9 8.9
2015-May-20 12:34N 41°12' W 072°12'9 0.7
2015-May-19 22:34N 41°20' W 072°05'7 7.1
2015-May-19 21:34N 41°14' W 072°11'8 8.3
2015-May-19 20:34N 41°21' W 072°06'0 0.0
2015-May-19 19:34N 41°21' W 072°06'0 0.0
2015-May-19 18:34N 41°21' W 072°06'0 0.0
2015-May-19 17:33N 41°21' W 072°06'0 0.0
2015-May-19 16:34N 41°21' W 072°06'0 0.0
2015-May-19 15:33N 41°21' W 072°06'0 0.0
2015-May-19 14:33N 41°21' W 072°06'7 7.4
2015-May-19 13:33N 41°14' W 072°09'4 3.9
2015-May-19 12:34N 41°12' W 072°13'1110.8
2015-May-19 11:34N 41°21' W 072°06'1 0.1
2015-May-18 22:34N 41°20' W 072°05'1010.0
2015-May-18 21:34N 41°12' W 072°12'1110.6
2015-May-18 20:34N 41°21' W 072°06'0 0.0
2015-May-18 19:33N 41°21' W 072°06'0 0.0
2015-May-18 18:34N 41°21' W 072°06'  
Track history (hours):
 
Tides and Currents Weather Stations Pressure Air Temp Water Temp Dewpoint Dewpoint Depression Visibility Wind Speed Wind Dir Waves Ship Positions

Sea Jet

Owner: Cross Sound Ferry Services, Inc., New London, CT. More information available from US FCC via Universal Licensing System and Coast Guard Vessel Documentation Center.

Last reported at 2015-May-28 17:33 UTC. Time now 2015-May-28 17:58 UTC.
Position N 41°21' W 072°06'.

Length 33 m.

Type: High speed craft. MMSI: 367117430.

Date/timePositionNaut miles runAvg speedWind from/ knotsBaromVisibWave heightAir tempDewpointWater temp
2015-May-28 17:33N 41°21' W 072°06'0 0.0
2015-May-28 16:33N 41°21' W 072°06'0 0.0
2015-May-28 15:33N 41°21' W 072°06'2 2.2
2015-May-28 14:34N 41°19' W 072°05'7 7.1
2015-May-28 13:34N 41°14' W 072°11'7 6.9
2015-May-28 12:33N 41°19' W 072°05'8 8.0
2015-May-28 11:34N 41°13' W 072°12'10 9.7
2015-May-28 10:34N 41°21' W 072°06'1 0.1
2015-May-28 00:34N 41°20' W 072°05'1010.1
2015-May-27 23:34N 41°12' W 072°12'10 9.9
2015-May-27 22:34N 41°20' W 072°05'8 7.6
2015-May-27 21:34N 41°14' W 072°11'9 8.5
2015-May-27 20:33N 41°21' W 072°06'0 0.0
2015-May-27 19:33N 41°21' W 072°06'0 0.0
2015-May-27 18:33N 41°21' W 072°06'4 4.3
2015-May-27 17:34N 41°17' W 072°06'1010.3
2015-May-27 16:33N 41°09' W 072°14'8 7.6
2015-May-27 15:34N 41°15' W 072°08'5 5.3
2015-May-27 14:33N 41°20' W 072°05'9 8.9
2015-May-27 13:34N 41°13' W 072°11'9 9.1
2015-May-27 12:33N 41°20' W 072°05'9 8.6
2015-May-27 11:34N 41°13' W 072°11'9 9.3
2015-May-27 10:33N 41°21' W 072°06'1 0.1
2015-May-27 00:33N 41°20' W 072°05'10 9.7
2015-May-26 23:34N 41°12' W 072°12'9 9.0
2015-May-26 22:33N 41°19' W 072°05'8 7.8
2015-May-26 21:34N 41°13' W 072°11'9 9.3
2015-May-26 20:34N 41°21' W 072°06'0 0.0
2015-May-26 19:33N 41°21' W 072°06'0 0.0
2015-May-26 18:34N 41°21' W 072°06'0 0.0
2015-May-26 17:34N 41°21' W 072°06'0 0.0
2015-May-26 16:34N 41°21' W 072°06'0 0.0
2015-May-26 15:34N 41°21' W 072°06'2 1.8
2015-May-26 14:34N 41°20' W 072°05'8 8.1
2015-May-26 13:33N 41°13' W 072°11'8 8.5
2015-May-26 12:34N 41°20' W 072°05'8 7.9
2015-May-26 11:34N 41°14' W 072°11'9 8.8
2015-May-26 10:34N 41°21' W 072°06'0 0.0
2015-May-26 01:31N 41°21' W 072°06'1920.2
2015-May-26 00:34N 41°17' W 071°41'3 3.0
2015-May-25 23:34N 41°16' W 071°37'2222.3
2015-May-25 22:33N 41°21' W 072°06'1413.7
2015-May-25 21:34N 41°18' W 071°48'1313.1
2015-May-25 20:33N 41°11' W 071°33'2424.2
2015-May-25 19:34N 41°18' W 072°04'2 2.4
2015-May-25 18:34N 41°18' W 072°01'2221.8
2015-May-25 17:33N 41°10' W 071°33'1312.9
2015-May-25 16:34N 41°17' W 071°48'1413.8
2015-May-25 15:33N 41°21' W 072°06'1717.5
2015-May-25 14:34N 41°17' W 071°43'7 7.3
2015-May-25 13:34N 41°15' W 071°34'2524.6
2015-May-25 12:34N 41°21' W 072°05'0 0.2
2015-May-25 11:33N 41°21' W 072°06'0 0.0
2015-May-25 01:33N 41°21' W 072°06'2019.9
2015-May-25 00:33N 41°16' W 071°40'1 1.1
2015-May-24 23:34N 41°16' W 071°39'2120.9
2015-May-24 22:33N 41°21' W 072°06'1515.2
2015-May-24 21:34N 41°17' W 071°46'1211.8
2015-May-24 20:33N 41°10' W 071°33'0 0.0
2015-May-24 19:33N 41°10' W 071°33'0 0.0
2015-May-24 18:33N 41°10' W 071°33'0 0.0
2015-May-24 17:33N 41°10' W 071°33'1616.3
2015-May-24 16:34N 41°18' W 071°53'1010.3
2015-May-24 15:33N 41°21' W 072°06'2120.8
2015-May-24 14:34N 41°16' W 071°39'2 1.9
2015-May-24 13:33N 41°16' W 071°36'2322.6
2015-May-24 12:34N 41°21' W 072°05'0 0.2
2015-May-24 11:33N 41°21' W 072°06'0 0.0
2015-May-24 01:33N 41°21' W 072°06'2020.4
2015-May-24 00:34N 41°16' W 071°39'5 4.6
2015-May-23 23:34N 41°15' W 071°34'2524.9
2015-May-23 22:33N 41°21' W 072°06'1313.5
2015-May-23 21:34N 41°18' W 071°48'1313.3
2015-May-23 20:33N 41°10' W 071°33'0 0.0
2015-May-23 19:33N 41°10' W 071°33'0 0.0
2015-May-23 18:33N 41°10' W 071°33'0 0.0
2015-May-23 17:33N 41°10' W 071°33'1514.7
2015-May-23 16:34N 41°18' W 071°50'1212.1
2015-May-23 15:34N 41°21' W 072°06'2019.9
2015-May-23 14:34N 41°16' W 071°40'3 2.6
2015-May-23 13:34N 41°16' W 071°36'2222.3
2015-May-23 12:33N 41°21' W 072°05'0 0.3
2015-May-23 11:33N 41°21' W 072°06'0 0.0
2015-May-23 01:31N 41°21' W 072°06'1920.3
2015-May-23 00:34N 41°16' W 071°41'3 2.9
2015-May-22 23:34N 41°16' W 071°37'2222.3
2015-May-22 22:34N 41°21' W 072°06'1414.2
2015-May-22 21:34N 41°17' W 071°47'1312.7
2015-May-22 20:33N 41°10' W 071°33'2120.6
2015-May-22 19:34N 41°18' W 071°59'4 4.1
2015-May-22 18:34N 41°18' W 072°04'2424.5
2015-May-22 17:33N 41°11' W 071°33'0 0.2
2015-May-22 16:33N 41°10' W 071°33'0 0.0
2015-May-22 15:33N 41°10' W 071°33'1817.7
2015-May-22 14:34N 41°18' W 071°55'9 8.8
2015-May-22 13:33N 41°21' W 072°06'0 0.1
2015-May-22 12:33N 41°21' W 072°06'1 0.1
2015-May-21 22:33N 41°20' W 072°05'10 9.5
2015-May-21 21:34N 41°12' W 072°12'1010.3
2015-May-21 20:33N 41°21' W 072°06'0 0.0
2015-May-21 19:34N 41°21' W 072°06'0 0.0
2015-May-21 18:34N 41°21' W 072°06'0 0.0
2015-May-21 17:33N 41°21' W 072°06'0 0.0
2015-May-21 16:34N 41°21' W 072°06'0 0.0
2015-May-21 15:33N 41°21' W 072°06'0 0.0
2015-May-21 14:33N 41°21' W 072°06'2 1.7
2015-May-21 13:34N 41°20' W 072°05'8 8.4
2015-May-21 12:34N 41°13' W 072°11'10 9.5
2015-May-21 11:33N 41°21' W 072°06'1 0.1
2015-May-20 22:34N 41°20' W 072°05'9 8.9
2015-May-20 21:34N 41°13' W 072°12'10 9.7
2015-May-20 20:33N 41°21' W 072°06'0 0.0
2015-May-20 19:33N 41°21' W 072°06'0 0.0
2015-May-20 18:34N 41°21' W 072°06'0 0.0
2015-May-20 17:33N 41°21' W 072°06'0 0.0
2015-May-20 16:33N 41°21' W 072°06'0 0.0
2015-May-20 15:33N 41°21' W 072°06'0 0.0
2015-May-20 14:33N 41°21' W 072°06'2 2.2
2015-May-20 13:34N 41°19' W 072°05'9 8.9
2015-May-20 12:34N 41°12' W 072°12'9 0.7
2015-May-19 22:34N 41°20' W 072°05'7 7.1
2015-May-19 21:34N 41°14' W 072°11'8 8.3
2015-May-19 20:34N 41°21' W 072°06'0 0.0
2015-May-19 19:34N 41°21' W 072°06'0 0.0
2015-May-19 18:34N 41°21' W 072°06'0 0.0
2015-May-19 17:33N 41°21' W 072°06'0 0.0
2015-May-19 16:34N 41°21' W 072°06'0 0.0
2015-May-19 15:33N 41°21' W 072°06'0 0.0
2015-May-19 14:33N 41°21' W 072°06'7 7.4
2015-May-19 13:33N 41°14' W 072°09'4 3.9
2015-May-19 12:34N 41°12' W 072°13'1110.8
2015-May-19 11:34N 41°21' W 072°06'1 0.1
2015-May-18 22:34N 41°20' W 072°05'1010.0
2015-May-18 21:34N 41°12' W 072°12'1110.6
2015-May-18 20:34N 41°21' W 072°06'0 0.0
2015-May-18 19:33N 41°21' W 072°06'0 0.0
2015-May-18 18:34N 41°21' W 072°06'  

Dump ship's entire track history